Terminal Aerodrome Forecast
Issued by NWS Cleveland, OH

Home | Current Version | Previous Version | Text Only | Print | Product List | Glossary On
Versions: 1 2 3 4 5 6 7 8 9 10 11 12 13 14 15 16 17 18 19
000
FTUS41 KCLE 011100
TAFCAK
TAF
KCAK 011138Z 0112/0212 03003KT P6SM BKN008 OVC012
      TEMPO 0112/0114 3SM BR
     FM011500 09005KT P6SM BKN015
     FM011700 09005KT P6SM BKN025
     FM011900 09005KT P6SM BKN035
     FM012200 11003KT P6SM SKC=

USA.gov is the U.S. government's official web portal to all federal, state and local government web resources and services.